Time;durP1;ratioP1;P1;durP2;ratioP2;P2;SDS_P1;SDS_P2;PMS_P1;PMS_P2;Temp;Humidity;BMP_temperature;BMP_pressure;BME280_temperature;BME280_humidity;BME280_pressure;Samples;Min_cycle;Max_cycle;Signal;HPM_P1;HPM_P2
2023/09/21 00:06:54;;;;;;;5.78;2.20;;;19.40;99.90;;;;;;6257330;22;20087;-90
2023/09/21 00:09:46;;;;;;;6.00;2.45;;;21.00;99.90;;;;;;6290528;22;20103;-91
2023/09/21 00:18:57;;;;;;;;;;;;;;;;;;;;;
2023/09/21 00:21:37;;;;;;;5.18;2.55;;;19.60;99.90;;;;;;6201756;23;20079;-93
2023/09/21 00:24:12;;;;;;;2.70;1.75;;;19.60;99.90;;;;;;6211995;23;20009;-89
2023/09/21 00:27:06;;;;;;;3.78;2.00;;;19.50;99.90;;;;;;6212867;23;20008;-90
2023/09/21 00:29:38;;;;;;;4.97;2.35;;;18.90;99.90;;;;;;6170842;22;20008;-91
2023/09/21 00:32:28;;;;;;;6.20;2.30;;;20.40;99.90;;;;;;6283269;22;19996;-91
2023/09/21 00:35:09;;;;;;;2.40;2.03;;;19.60;99.90;;;;;;6297010;22;20015;-91
2023/09/21 00:37:38;;;;;;;;;;;19.60;99.90;;;;;;6277837;22;20016;-91
2023/09/21 00:40:23;;;;;;;2.88;2.20;;;19.80;99.90;;;;;;6276134;22;19969;-90
2023/09/21 00:43:42;;;;;;;3.20;2.00;;;19.60;99.90;;;;;;6276149;22;20057;-90
2023/09/21 00:46:21;;;;;;;5.18;1.95;;;19.70;99.90;;;;;;6275760;22;20079;-92
2023/09/21 00:48:53;;;;;;;7.10;2.40;;;19.60;99.90;;;;;;6253943;22;19999;-90
2023/09/21 00:52:11;;;;;;;4.07;2.40;;;19.60;99.90;;;;;;6276032;22;20008;-91
2023/09/21 00:54:59;;;;;;;2.63;1.83;;;19.60;99.90;;;;;;6223710;22;20023;-91
2023/09/21 00:57:36;;;;;;;5.10;2.17;;;19.70;99.90;;;;;;6276491;22;20030;-91
2023/09/21 01:00:18;;;;;;;5.10;1.73;;;19.60;99.90;;;;;;6275904;22;20086;-91
2023/09/21 01:02:48;;;;;;;5.50;1.95;;;19.60;99.90;;;;;;6274539;22;20004;-90
2023/09/21 01:05:16;;;;;;;4.17;2.13;;;19.60;99.90;;;;;;6276202;22;20007;-89
2023/09/21 01:07:58;;;;;;;3.30;1.95;;;19.60;99.90;;;;;;6275812;22;20004;-91
2023/09/21 01:20:50;;;;;;;7.45;2.53;;;19.90;99.90;;;;;;6244326;23;20229;-93
2023/09/21 01:23:57;;;;;;;2.53;2.03;;;19.60;99.90;;;;;;6245386;23;20000;-91
2023/09/21 01:26:54;;;;;;;2.28;1.90;;;19.40;99.90;;;;;;6245533;23;20443;-91
2023/09/21 01:29:26;;;;;;;6.07;2.22;;;19.60;99.90;;;;;;6244961;23;20004;-90
2023/09/21 01:35:06;;;;;;;2.00;1.80;;;18.70;99.90;;;;;;6237767;23;20014;-92
2023/09/21 01:43:42;;;;;;;3.83;2.03;;;19.50;99.90;;;;;;6245071;23;20007;-91
2023/09/21 01:46:33;;;;;;;2.83;2.20;;;19.30;99.90;;;;;;6246150;23;20012;-91
2023/09/21 01:49:14;;;;;;;3.42;2.03;;;19.50;99.90;;;;;;6245689;23;20023;-90
2023/09/21 01:51:52;;;;;;;2.83;1.98;;;19.50;99.90;;;;;;6245936;23;20019;-91
2023/09/21 01:58:23;;;;;;;3.25;1.73;;;19.50;99.90;;;;;;6246640;23;20099;-91
2023/09/21 02:01:08;;;;;;;5.07;2.00;;;18.90;99.90;;;;;;6261270;22;20192;-91
2023/09/21 02:03:45;;;;;;;4.50;1.70;;;19.50;99.90;;;;;;6256981;22;20008;-91
2023/09/21 02:06:30;;;;;;;4.60;2.25;;;19.70;99.90;;;;;;6259116;22;20008;-91
2023/09/21 02:09:16;;;;;;;2.03;1.85;;;19.50;99.90;;;;;;6245334;23;20020;-92
2023/09/21 02:14:47;;;;;;;3.03;2.45;;;19.50;99.90;;;;;;6244737;23;20010;-92
2023/09/21 02:17:25;;;;;;;6.07;2.25;;;19.40;99.90;;;;;;6244534;23;20004;-92
2023/09/21 02:20:04;;;;;;;5.75;1.98;;;19.50;99.90;;;;;;6244856;23;20440;-91
2023/09/21 02:22:30;;;;;;;4.30;2.00;;;19.50;99.90;;;;;;6245269;23;20033;-90
2023/09/21 02:25:10;;;;;;;2.78;1.75;;;19.50;99.90;;;;;;6245559;23;20008;-93
2023/09/21 02:27:47;;;;;;;4.75;2.35;;;19.50;99.90;;;;;;6247194;23;20004;-90
2023/09/21 02:30:43;;;;;;;3.00;1.80;;;19.50;99.90;;;;;;6247033;23;20004;-92
2023/09/21 02:33:18;;;;;;;6.80;2.00;;;18.00;99.90;;;;;;6246064;23;20000;-91
2023/09/21 02:36:02;;;;;;;3.25;1.88;;;18.60;99.90;;;;;;6246893;23;20012;-92
2023/09/21 02:38:39;;;;;;;3.90;1.85;;;19.50;99.90;;;;;;6257251;22;20004;-92
2023/09/21 02:41:23;;;;;;;3.13;1.92;;;19.90;99.90;;;;;;6265981;22;20008;-91
2023/09/21 02:44:14;;;;;;;5.07;2.53;;;19.40;99.90;;;;;;6251925;23;20012;-91
2023/09/21 02:46:40;;;;;;;2.70;2.13;;;19.50;99.90;;;;;;6246734;23;20015;-89
2023/09/21 02:49:25;;;;;;;2.35;2.00;;;19.40;99.90;;;;;;6247209;23;19996;-91
2023/09/21 02:52:08;;;;;;;3.67;2.25;;;18.00;99.90;;;;;;6244962;23;20012;-89
2023/09/21 02:54:57;;;;;;;4.97;2.40;;;20.60;99.90;;;;;;6246014;23;20004;-91
2023/09/21 02:57:50;;;;;;;5.53;2.28;;;19.40;99.90;;;;;;6246672;23;20027;-92
2023/09/21 03:00:39;;;;;;;3.78;2.00;;;19.50;99.90;;;;;;6268478;22;20020;-91
2023/09/21 03:03:56;;;;;;;2.42;1.92;;;19.40;99.90;;;;;;6248033;22;20028;-90
2023/09/21 03:06:22;;;;;;;5.93;2.17;;;19.40;99.90;;;;;;6245168;23;20015;-90
2023/09/21 03:09:01;;;;;;;4.18;2.13;;;19.40;99.90;;;;;;6245687;22;20000;-91
2023/09/21 03:11:34;;;;;;;3.85;2.17;;;20.40;99.90;;;;;;6246262;23;20429;-90
2023/09/21 03:14:33;;;;;;;3.55;1.80;;;19.30;99.90;;;;;;6232155;23;20004;-91
2023/09/21 03:16:59;;;;;;;2.95;2.13;;;19.30;99.90;;;;;;6246321;22;20004;-88
2023/09/21 03:19:25;;;;;;;3.17;2.20;;;19.40;99.90;;;;;;6246360;23;20023;-91
2023/09/21 03:21:50;;;;;;;7.10;2.08;;;19.30;99.90;;;;;;6245468;23;20368;-92
2023/09/21 03:24:17;;;;;;;2.42;2.22;;;19.30;99.90;;;;;;6246725;23;20008;-92
2023/09/21 03:26:45;;;;;;;8.38;2.55;;;20.50;99.90;;;;;;6246580;23;20008;-92
2023/09/21 03:29:10;;;;;;;4.40;2.10;;;19.30;99.90;;;;;;6246478;23;20043;-92
2023/09/21 03:34:55;;;;;;;2.63;1.75;;;19.30;99.90;;;;;;6244142;23;20004;-90
2023/09/21 03:37:22;;;;;;;4.90;1.85;;;19.30;99.90;;;;;;6246302;23;20365;-91
2023/09/21 03:39:48;;;;;;;2.90;2.20;;;19.40;99.90;;;;;;6245529;23;20008;-89
2023/09/21 03:42:32;;;;;;;2.75;1.65;;;19.40;99.90;;;;;;6260264;22;19991;-92
2023/09/21 03:44:59;;;;;;;5.38;2.35;;;19.40;99.90;;;;;;6258225;22;20035;-90
2023/09/21 03:47:36;;;;;;;5.45;2.15;;;19.40;99.90;;;;;;6248700;23;20011;-90
2023/09/21 03:50:06;;;;;;;6.07;2.35;;;19.40;99.90;;;;;;6245259;23;20088;-91
2023/09/21 03:52:32;;;;;;;6.20;1.95;;;19.40;99.90;;;;;;6246969;23;20004;-90
2023/09/21 03:55:02;;;;;;;3.10;1.98;;;20.60;99.90;;;;;;6258217;23;20520;-91
2023/09/21 03:57:49;;;;;;;3.90;2.30;;;19.80;99.90;;;;;;6246370;23;20000;-91
2023/09/21 04:01:21;;;;;;;4.32;2.35;;;20.50;99.90;;;;;;6245598;23;20008;-93
2023/09/21 04:04:09;;;;;;;5.07;2.45;;;19.40;99.90;;;;;;6221678;22;20032;-91
2023/09/21 04:06:55;;;;;;;5.90;2.38;;;19.50;99.90;;;;;;6276262;22;19999;-91
2023/09/21 04:09:20;;;;;;;4.20;2.22;;;19.50;99.90;;;;;;6272434;22;20436;-92
2023/09/21 04:26:02;;;;;;;8.55;2.20;;;19.30;99.90;;;;;;6154788;23;20015;-91
2023/09/21 04:28:31;;;;;;;4.53;2.35;;;19.20;99.90;;;;;;6066087;23;20007;-90
2023/09/21 04:31:20;;;;;;;4.60;2.08;;;19.20;99.90;;;;;;6064402;23;20093;-89
2023/09/21 04:33:51;;;;;;;4.70;2.38;;;19.20;99.90;;;;;;5968890;23;20446;-90
2023/09/21 04:36:35;;;;;;;5.68;2.58;;;19.40;99.90;;;;;;6008137;23;20083;-92
2023/09/21 04:39:01;;;;;;;3.05;2.13;;;19.20;99.90;;;;;;6031826;23;20010;-91
2023/09/21 04:41:30;;;;;;;3.08;2.20;;;19.10;99.90;;;;;;6147444;23;20001;-91
2023/09/21 04:44:16;;;;;;;2.65;2.20;;;19.10;99.90;;;;;;6108753;23;19985;-90
2023/09/21 04:46:42;;;;;;;7.00;2.42;;;19.10;99.90;;;;;;6179203;23;19997;-91
2023/09/21 04:49:10;;;;;;;4.85;2.60;;;19.00;99.90;;;;;;6171085;23;20010;-88
2023/09/21 04:51:50;;;;;;;3.88;2.88;;;19.00;99.90;;;;;;6210862;22;20667;-88
2023/09/21 04:54:16;;;;;;;5.18;2.38;;;18.90;99.90;;;;;;6274054;22;20040;-88
2023/09/21 04:56:54;;;;;;;3.40;2.50;;;18.90;99.90;;;;;;6275615;22;20409;-88
2023/09/21 04:59:21;;;;;;;2.88;2.58;;;18.80;99.90;;;;;;6273377;22;20095;-89
2023/09/21 05:01:57;;;;;;;3.92;2.45;;;18.80;99.90;;;;;;6273902;22;20011;-90
2023/09/21 05:11:43;;;;;;;;;;;;;;;;;;;;;
2023/09/21 05:17:52;;;;;;;2.75;2.55;;;17.80;99.90;;;;;;6154049;22;20496;-88
2023/09/21 05:20:18;;;;;;;3.08;2.35;;;18.40;99.90;;;;;;6243994;23;20083;-88
2023/09/21 05:22:43;;;;;;;5.78;2.42;;;18.30;99.90;;;;;;6244070;22;20409;-89
2023/09/21 05:25:09;;;;;;;3.15;2.53;;;18.30;99.90;;;;;;6244327;22;20027;-88
2023/09/21 05:27:41;;;;;;;2.42;2.22;;;19.20;99.90;;;;;;6243654;23;20004;-88
2023/09/21 05:30:10;;;;;;;3.28;2.83;;;19.50;99.90;;;;;;6244207;23;20004;-88
2023/09/21 05:32:39;;;;;;;4.05;2.67;;;18.30;99.90;;;;;;6267467;22;20004;-89
2023/09/21 05:35:06;;;;;;;3.38;2.70;;;18.60;99.90;;;;;;6244254;22;20429;-88
2023/09/21 05:37:32;;;;;;;3.28;2.60;;;18.20;99.90;;;;;;6244272;22;20008;-89
2023/09/21 05:40:00;;;;;;;3.03;2.55;;;18.20;99.90;;;;;;6244691;22;20125;-88
2023/09/21 05:42:31;;;;;;;5.47;3.08;;;18.10;99.90;;;;;;6247364;23;20027;-89
2023/09/21 05:45:19;;;;;;;6.35;3.53;;;19.20;99.90;;;;;;6251127;23;20079;-89
2023/09/21 05:47:59;;;;;;;6.18;3.22;;;18.00;99.90;;;;;;6255777;22;19992;-89
2023/09/21 05:50:52;;;;;;;;;;;18.60;99.90;;;;;;6261610;22;20004;-89
2023/09/21 05:53:31;;;;;;;4.25;3.42;;;18.00;99.90;;;;;;6248093;22;19907;-90
2023/09/21 05:59:32;;;;;;;4.75;3.05;;;17.90;99.90;;;;;;6210091;22;20027;-89
2023/09/21 06:02:25;;;;;;;3.28;2.83;;;17.20;99.90;;;;;;6251741;22;20424;-90
2023/09/21 06:05:38;;;;;;;2.90;2.70;;;17.60;99.90;;;;;;6247935;22;20007;-89
2023/09/21 06:08:22;;;;;;;4.95;3.13;;;17.80;99.90;;;;;;6192562;22;20310;-89
2023/09/21 06:15:04;;;;;;;;;;;;;;;;;;;;;
2023/09/21 06:18:05;;;;;;;3.83;2.53;;;17.80;99.90;;;;;;6108077;23;20134;-91
2023/09/21 06:21:23;;;;;;;2.85;1.95;;;17.70;99.90;;;;;;6184154;23;20004;-90
2023/09/21 06:24:15;;;;;;;2.53;2.05;;;17.80;99.90;;;;;;6182937;23;20226;-89
2023/09/21 06:26:59;;;;;;;2.55;1.58;;;16.40;99.90;;;;;;6183508;23;20418;-88
2023/09/21 06:29:46;;;;;;;1.10;1.00;;;17.20;99.90;;;;;;6183848;23;20013;-89
2023/09/21 06:32:42;;;;;;;1.27;0.98;;;17.10;99.90;;;;;;6215166;23;20057;-90
2023/09/21 06:35:28;;;;;;;1.75;0.82;;;16.60;99.90;;;;;;6245509;23;20042;-89
2023/09/21 06:38:22;;;;;;;1.25;0.98;;;17.00;99.90;;;;;;6220048;23;20012;-89
2023/09/21 06:41:13;;;;;;;2.47;0.98;;;16.80;99.90;;;;;;6246840;23;20021;-88
2023/09/21 06:43:44;;;;;;;1.23;0.60;;;16.10;99.90;;;;;;6246021;23;20004;-89
2023/09/21 06:47:18;;;;;;;;;;;;;;;;;;;;;
2023/09/21 06:56:47;;;;;;;1.75;1.05;;;16.60;99.90;;;;;;6205093;23;20031;-90
2023/09/21 07:06:11;;;;;;;0.93;0.80;;;16.70;99.90;;;;;;6245317;22;20011;-89
2023/09/21 07:08:51;;;;;;;;;;;16.90;99.90;;;;;;6244059;22;19992;-89
2023/09/21 07:11:19;;;;;;;4.38;1.25;;;16.70;99.90;;;;;;6233791;22;19982;-90
2023/09/21 07:13:46;;;;;;;3.78;1.50;;;17.50;99.90;;;;;;6240816;22;20000;-88
2023/09/21 07:16:15;;;;;;;0.88;0.70;;;17.50;99.90;;;;;;6241269;22;20027;-89
2023/09/21 07:18:42;;;;;;;1.95;0.93;;;17.50;99.90;;;;;;6241303;22;20081;-89
2023/09/21 07:21:08;;;;;;;2.15;0.75;;;17.90;99.90;;;;;;6242064;22;20000;-90
2023/09/21 07:23:49;;;;;;;0.90;0.70;;;16.90;99.90;;;;;;6243119;22;20310;-90
2023/09/21 07:26:15;;;;;;;1.60;0.80;;;17.00;99.90;;;;;;6243534;22;20010;-90
2023/09/21 07:28:40;;;;;;;1.13;1.02;;;16.50;99.90;;;;;;6243093;22;20083;-85
2023/09/21 07:31:15;;;;;;;2.15;1.00;;;17.30;99.90;;;;;;6243501;22;20000;-89
2023/09/21 07:33:41;;;;;;;1.15;0.80;;;17.00;99.90;;;;;;6244566;22;20071;-86
2023/09/21 07:36:08;;;;;;;1.42;1.05;;;17.10;99.90;;;;;;6244221;22;20039;-85
2023/09/21 07:38:33;;;;;;;3.45;1.10;;;18.40;99.90;;;;;;6245345;22;20023;-86
2023/09/21 07:41:03;;;;;;;1.48;1.20;;;17.20;99.90;;;;;;6244209;22;19996;-87
2023/09/21 07:43:43;;;;;;;1.98;1.38;;;17.20;99.90;;;;;;6245398;22;20047;-86
2023/09/21 07:46:09;;;;;;;1.50;1.00;;;18.40;99.90;;;;;;6259444;22;20022;-84
2023/09/21 07:48:35;;;;;;;1.52;1.00;;;17.30;99.90;;;;;;6275112;22;20000;-85
2023/09/21 07:51:05;;;;;;;3.08;0.82;;;18.50;99.90;;;;;;6275538;22;20079;-89
2023/09/21 07:53:45;;;;;;;3.00;0.90;;;17.30;99.90;;;;;;6280186;22;20057;-87
2023/09/21 07:56:12;;;;;;;1.52;0.88;;;17.30;99.90;;;;;;6291301;22;20023;-83
2023/09/21 07:58:38;;;;;;;3.03;1.20;;;18.60;99.90;;;;;;6276409;22;20336;-89
2023/09/21 08:01:04;;;;;;;3.60;1.17;;;17.30;99.90;;;;;;6285043;22;19996;-89
2023/09/21 08:03:30;;;;;;;3.58;1.48;;;17.30;99.90;;;;;;6282633;22;20004;-87
2023/09/21 08:05:56;;;;;;;3.08;1.20;;;17.40;99.90;;;;;;6275300;22;20004;-88
2023/09/21 08:08:24;;;;;;;1.77;1.10;;;17.40;99.90;;;;;;6274470;22;20007;-89
2023/09/21 08:10:51;;;;;;;1.70;1.02;;;17.40;99.90;;;;;;6273873;22;20010;-89
2023/09/21 08:13:17;;;;;;;1.25;0.90;;;17.40;99.90;;;;;;6274445;22;20004;-90
2023/09/21 08:15:43;;;;;;;1.60;1.15;;;17.40;99.90;;;;;;6274456;22;20118;-89
2023/09/21 08:18:10;;;;;;;2.88;1.33;;;17.90;99.90;;;;;;6274554;22;20012;-88
2023/09/21 08:20:39;;;;;;;3.67;1.63;;;17.40;99.90;;;;;;6273845;22;20004;-90
2023/09/21 08:23:06;;;;;;;2.15;1.20;;;17.50;99.90;;;;;;6275149;22;20095;-89
2023/09/21 08:25:33;;;;;;;3.08;1.42;;;17.50;99.90;;;;;;6276145;22;20003;-89
2023/09/21 08:27:59;;;;;;;1.75;1.25;;;17.50;99.90;;;;;;6276251;22;20000;-90
2023/09/21 08:30:26;;;;;;;1.67;1.02;;;17.90;99.90;;;;;;6290286;22;19999;-91
2023/09/21 08:32:51;;;;;;;5.63;1.48;;;17.50;99.90;;;;;;6278321;22;20003;-89
2023/09/21 08:35:17;;;;;;;2.30;1.35;;;17.90;99.90;;;;;;6276752;22;20006;-90
2023/09/21 08:37:43;;;;;;;2.20;1.30;;;17.60;99.90;;;;;;6275167;22;20497;-90
2023/09/21 08:40:09;;;;;;;1.40;1.05;;;17.60;99.90;;;;;;6276173;22;20446;-89
2023/09/21 08:42:36;;;;;;;1.52;1.17;;;17.50;99.90;;;;;;6276115;22;20424;-89
2023/09/21 08:45:08;;;;;;;6.47;1.42;;;17.50;99.90;;;;;;6274883;22;20003;-88
2023/09/21 08:47:34;;;;;;;3.60;1.50;;;17.50;99.90;;;;;;6275577;22;20329;-88
2023/09/21 08:50:07;;;;;;;2.03;1.15;;;17.50;99.90;;;;;;6275894;22;20082;-89
2023/09/21 08:52:34;;;;;;;2.42;1.15;;;17.50;99.90;;;;;;6274946;22;20003;-90
2023/09/21 08:55:00;;;;;;;2.55;1.40;;;17.50;99.90;;;;;;6286905;22;19987;-88
2023/09/21 08:57:30;;;;;;;1.73;1.00;;;17.40;99.90;;;;;;6300712;22;20000;-89
2023/09/21 09:00:00;;;;;;;1.80;1.25;;;17.60;99.90;;;;;;6282392;22;20011;-85
2023/09/21 09:02:32;;;;;;;2.33;1.40;;;18.00;99.90;;;;;;6275008;22;20003;-89
2023/09/21 09:04:58;;;;;;;2.67;1.23;;;17.40;99.90;;;;;;6274235;22;20004;-90
2023/09/21 09:07:24;;;;;;;2.58;1.23;;;17.60;99.90;;;;;;6273987;22;20004;-90
2023/09/21 09:09:49;;;;;;;2.05;1.38;;;17.40;99.90;;;;;;6275468;22;20079;-90
2023/09/21 09:12:25;;;;;;;3.95;1.50;;;17.30;99.90;;;;;;6276201;22;20427;-89
2023/09/21 09:14:52;;;;;;;1.65;1.05;;;17.40;99.90;;;;;;6275022;22;20513;-90
2023/09/21 09:17:18;;;;;;;1.95;0.82;;;17.30;99.90;;;;;;6274575;22;20443;-90
2023/09/21 09:19:46;;;;;;;3.75;1.50;;;17.50;99.90;;;;;;6274157;22;20020;-89
2023/09/21 09:22:13;;;;;;;1.58;1.15;;;17.90;99.90;;;;;;6295757;22;20051;-90
2023/09/21 09:24:39;;;;;;;2.75;1.50;;;17.30;99.90;;;;;;6276260;22;20410;-90
2023/09/21 09:27:05;;;;;;;3.00;1.58;;;17.20;99.90;;;;;;6274038;22;20088;-91
2023/09/21 09:29:30;;;;;;;2.83;1.35;;;17.20;99.90;;;;;;6276767;22;20014;-89
2023/09/21 09:31:56;;;;;;;4.05;1.67;;;17.20;99.90;;;;;;6276516;22;20079;-90
2023/09/21 09:34:22;;;;;;;2.60;1.23;;;17.10;99.90;;;;;;6276561;22;20008;-90
2023/09/21 09:36:51;;;;;;;3.70;1.20;;;17.10;99.90;;;;;;6276812;22;20036;-89
2023/09/21 09:39:18;;;;;;;2.88;1.23;;;17.10;99.90;;;;;;6277789;22;20016;-90
2023/09/21 09:41:49;;;;;;;3.33;1.10;;;17.00;99.90;;;;;;6273610;22;20004;-87
2023/09/21 09:44:21;;;;;;;4.18;1.65;;;17.00;99.90;;;;;;6250764;22;20451;-90
2023/09/21 09:46:57;;;;;;;3.72;1.60;;;17.00;99.90;;;;;;6275995;22;20041;-91
2023/09/21 09:49:43;;;;;;;2.03;1.17;;;17.00;99.90;;;;;;6278211;22;20428;-92
2023/09/21 09:53:29;;;;;;;;;;;;;;;;;;;;;
2023/09/21 09:56:14;;;;;;;2.15;1.00;;;17.00;99.90;;;;;;6261920;22;20098;-92
2023/09/21 09:58:41;;;;;;;2.45;1.05;;;17.00;99.90;;;;;;6275960;22;20432;-84
2023/09/21 10:01:21;;;;;;;;;;;;;;;;;;;;;
2023/09/21 10:04:05;;;;;;;1.77;1.00;;;18.20;99.90;;;;;;6243510;23;20100;-89
2023/09/21 10:07:06;;;;;;;2.50;1.40;;;17.10;99.90;;;;;;6269068;22;20019;-90
2023/09/21 10:56:05;;;;;;;1.20;1.00;;;16.70;99.90;;;;;;6095492;23;20186;-91
2023/09/21 11:02:16;;;;;;;2.60;0.82;;;16.60;99.90;;;;;;6109650;23;20017;-90
2023/09/21 11:05:01;;;;;;;1.15;1.05;;;17.40;99.90;;;;;;6109016;23;20077;-87
2023/09/21 11:07:33;;;;;;;1.20;1.10;;;16.60;99.90;;;;;;6114082;23;20007;-91
2023/09/21 11:10:22;;;;;;;1.20;1.00;;;16.80;99.90;;;;;;6102454;23;20228;-91
2023/09/21 11:12:54;;;;;;;2.10;0.98;;;17.80;99.90;;;;;;6079584;23;20034;-87
2023/09/21 11:15:20;;;;;;;2.97;0.95;;;17.20;99.90;;;;;;6093729;23;20010;-91
2023/09/21 11:25:16;;;;;;;2.58;1.25;;;16.70;99.90;;;;;;6094344;23;20527;-91
2023/09/21 11:33:02;;;;;;;;;;;;;;;;;;;;;
2023/09/21 12:17:02;;;;;;;1.92;1.48;;;16.80;99.90;;;;;;6238336;22;20039;-89
2023/09/21 12:19:28;;;;;;;1.55;1.40;;;16.80;99.90;;;;;;6244605;23;20024;-89
2023/09/21 12:22:01;;;;;;;3.00;1.70;;;17.50;99.90;;;;;;6243164;23;20419;-89
2023/09/21 12:24:27;;;;;;;2.03;1.67;;;17.40;99.90;;;;;;6244464;23;20420;-91
2023/09/21 12:27:13;;;;;;;2.25;1.92;;;15.80;99.90;;;;;;6243752;23;20042;-90
2023/09/21 12:30:09;;;;;;;2.65;1.85;;;16.80;99.90;;;;;;6240162;23;20039;-84
2023/09/21 12:32:53;;;;;;;2.15;1.95;;;16.80;99.90;;;;;;6222113;23;20000;-91
2023/09/21 12:35:21;;;;;;;2.90;1.90;;;16.80;99.90;;;;;;6244720;23;20142;-92
2023/09/21 12:38:05;;;;;;;3.30;1.60;;;16.80;99.90;;;;;;6243022;23;20008;-91
2023/09/21 12:40:32;;;;;;;2.70;1.40;;;16.80;99.90;;;;;;6244756;23;20534;-92
2023/09/21 12:43:16;;;;;;;3.47;1.40;;;16.90;99.90;;;;;;6243879;23;19996;-91
2023/09/21 12:45:41;;;;;;;1.73;1.33;;;18.00;99.90;;;;;;6244233;23;20534;-91
2023/09/21 12:48:19;;;;;;;1.70;1.45;;;16.90;99.90;;;;;;6244721;23;20004;-92
2023/09/21 12:50:45;;;;;;;1.38;1.25;;;18.00;99.90;;;;;;6243411;23;20011;-92
2023/09/21 12:53:26;;;;;;;2.30;1.17;;;18.10;99.90;;;;;;6245784;23;20008;-92
2023/09/21 12:55:51;;;;;;;0.80;0.80;;;16.90;99.90;;;;;;6243469;23;20012;-88
2023/09/21 12:58:37;;;;;;;2.58;1.40;;;18.00;99.90;;;;;;6243724;23;20008;-91
2023/09/21 13:01:05;;;;;;;0.93;0.82;;;16.90;99.90;;;;;;6245282;23;20380;-90
2023/09/21 13:03:49;;;;;;;0.80;0.70;;;18.10;99.90;;;;;;6244847;23;20008;-90
2023/09/21 13:06:38;;;;;;;1.42;0.80;;;17.90;99.90;;;;;;6244874;23;20012;-91
2023/09/21 13:09:06;;;;;;;2.28;1.17;;;16.00;99.90;;;;;;6244308;23;20442;-90
2023/09/21 13:11:35;;;;;;;2.90;1.13;;;16.90;99.90;;;;;;6265610;22;20022;-92
2023/09/21 13:14:10;;;;;;;2.17;1.00;;;16.70;99.90;;;;;;6250782;23;20008;-91
2023/09/21 13:16:40;;;;;;;1.17;1.08;;;17.50;99.90;;;;;;6243840;23;20042;-91
2023/09/21 13:19:11;;;;;;;3.80;1.50;;;17.60;99.90;;;;;;6244521;23;20016;-91
2023/09/21 13:21:41;;;;;;;2.17;1.00;;;16.80;99.90;;;;;;6243485;23;20008;-91
2023/09/21 13:24:12;;;;;;;1.80;1.42;;;16.70;99.90;;;;;;6244528;23;20391;-89
2023/09/21 13:26:41;;;;;;;2.55;1.27;;;16.70;99.90;;;;;;6242474;23;19996;-90
2023/09/21 13:29:11;;;;;;;1.30;0.88;;;18.00;99.90;;;;;;6248069;23;20008;-91
2023/09/21 13:31:37;;;;;;;2.08;1.10;;;17.90;99.90;;;;;;6247927;23;20031;-91
2023/09/21 13:34:05;;;;;;;1.33;1.20;;;16.90;99.90;;;;;;6244018;23;20429;-92
2023/09/21 13:36:31;;;;;;;3.17;1.60;;;16.50;99.90;;;;;;6243097;23;20337;-91
2023/09/21 13:38:56;;;;;;;3.05;2.42;;;17.70;99.90;;;;;;6243300;23;20087;-89
2023/09/21 13:41:22;;;;;;;1.60;1.45;;;17.10;99.90;;;;;;6244573;23;20008;-89
2023/09/21 13:43:47;;;;;;;1.30;1.20;;;17.00;99.90;;;;;;6243753;23;20004;-90
2023/09/21 13:46:22;;;;;;;2.53;1.58;;;17.00;99.90;;;;;;6243393;23;20003;-91
2023/09/21 13:52:15;;;;;;;2.25;1.20;;;17.00;99.90;;;;;;6246812;23;20019;-92
2023/09/21 13:54:50;;;;;;;1.92;1.33;;;18.10;99.90;;;;;;6246387;23;20425;-90
2023/09/21 13:57:30;;;;;;;1.67;1.35;;;17.00;99.90;;;;;;6242717;23;20506;-92
2023/09/21 13:59:57;;;;;;;1.65;1.48;;;17.10;99.90;;;;;;6241864;23;20323;-89
2023/09/21 14:02:23;;;;;;;2.47;1.55;;;17.10;99.90;;;;;;6242946;23;19996;-90
2023/09/21 14:04:58;;;;;;;2.97;1.30;;;17.10;99.90;;;;;;6232436;23;20012;-90
2023/09/21 14:07:24;;;;;;;2.25;1.30;;;17.10;99.90;;;;;;6243547;23;20027;-90
2023/09/21 14:10:07;;;;;;;1.83;1.67;;;18.50;99.90;;;;;;6245057;23;20022;-89
2023/09/21 14:12:32;;;;;;;3.40;1.63;;;17.20;99.90;;;;;;6246974;23;20055;-91
2023/09/21 14:15:14;;;;;;;1.92;1.73;;;17.20;99.90;;;;;;6261669;22;19996;-91
2023/09/21 14:18:05;;;;;;;2.45;1.88;;;18.40;99.90;;;;;;6217876;23;20025;-90
2023/09/21 14:21:41;;;;;;;;;;;;;;;;;;;;;
2023/09/21 14:24:22;;;;;;;4.47;1.65;;;16.90;99.90;;;;;;6194779;23;20072;-90
2023/09/21 14:27:00;;;;;;;1.95;1.45;;;18.00;99.90;;;;;;6210632;22;20028;-91
2023/09/21 14:29:27;;;;;;;3.40;1.40;;;16.10;99.90;;;;;;6212951;23;20016;-90
2023/09/21 14:32:04;;;;;;;1.63;1.40;;;17.20;99.90;;;;;;6212023;23;20033;-90
2023/09/21 14:34:33;;;;;;;2.75;1.58;;;17.20;99.90;;;;;;6212708;23;20009;-89
2023/09/21 14:37:17;;;;;;;1.77;1.30;;;18.00;99.90;;;;;;6212604;23;20015;-90
2023/09/21 14:39:43;;;;;;;2.08;1.50;;;17.80;99.90;;;;;;6213976;23;20104;-90
2023/09/21 14:42:24;;;;;;;2.72;1.83;;;17.20;99.90;;;;;;6212922;23;20009;-90
2023/09/21 14:44:50;;;;;;;1.55;1.45;;;17.10;99.90;;;;;;6215395;23;20087;-91
2023/09/21 14:47:30;;;;;;;3.20;2.00;;;18.00;99.90;;;;;;6191309;23;20369;-88
2023/09/21 14:50:20;;;;;;;3.03;1.63;;;18.40;99.90;;;;;;6218623;23;20039;-89
2023/09/21 14:53:05;;;;;;;1.55;1.45;;;17.10;99.90;;;;;;6213195;23;20004;-88
2023/09/21 14:55:51;;;;;;;1.83;1.60;;;17.00;99.90;;;;;;6211435;23;20004;-87
2023/09/21 14:58:16;;;;;;;1.80;1.70;;;17.10;99.90;;;;;;6213146;23;20088;-88
2023/09/21 15:01:03;;;;;;;2.15;1.70;;;17.10;99.90;;;;;;6213786;23;20032;-87
2023/09/21 15:03:29;;;;;;;1.40;1.30;;;16.40;99.90;;;;;;6204029;23;20004;-86
2023/09/21 15:06:00;;;;;;;2.45;1.70;;;17.00;99.90;;;;;;6213303;23;20326;-90
2023/09/21 15:08:26;;;;;;;1.40;1.30;;;18.30;99.90;;;;;;6206374;23;20001;-88
2023/09/21 15:10:54;;;;;;;1.63;1.38;;;17.10;99.90;;;;;;6213851;23;20016;-89
2023/09/21 15:13:28;;;;;;;1.50;1.33;;;17.10;99.90;;;;;;6221301;23;19985;-89
2023/09/21 15:16:11;;;;;;;;;;;;;;;;;;;;;
2023/09/21 15:18:37;;;;;;;2.40;2.20;;;16.00;99.90;;;;;;6124559;23;20089;-88
2023/09/21 15:21:21;;;;;;;2.38;2.17;;;17.10;99.90;;;;;;6123218;23;20037;-91
2023/09/21 15:24:06;;;;;;;3.42;2.38;;;18.30;99.90;;;;;;6214511;23;20004;-87
2023/09/21 15:26:41;;;;;;;2.72;2.47;;;17.10;99.90;;;;;;6233081;23;20024;-85
2023/09/21 15:29:09;;;;;;;3.08;1.98;;;17.10;99.90;;;;;;6244686;23;20440;-83
2023/09/21 15:31:35;;;;;;;2.50;2.30;;;17.50;99.90;;;;;;6243497;23;20074;-91
2023/09/21 15:34:19;;;;;;;2.72;2.50;;;17.20;99.90;;;;;;6243480;23;20425;-91
2023/09/21 15:37:00;;;;;;;2.58;2.38;;;17.20;99.90;;;;;;6245125;23;20004;-90
2023/09/21 15:39:50;;;;;;;6.68;1.92;;;18.00;99.90;;;;;;6243913;23;20012;-91
2023/09/21 15:46:10;;;;;;;3.30;2.17;;;17.20;99.90;;;;;;6243570;23;20020;-89
2023/09/21 15:48:56;;;;;;;;;;;18.60;99.90;;;;;;6243593;23;20360;-87
2023/09/21 15:51:50;;;;;;;2.17;2.08;;;17.10;99.90;;;;;;6243210;23;19899;-89
2023/09/21 15:55:12;;;;;;;2.40;2.20;;;17.00;99.90;;;;;;6217673;22;20021;-90
2023/09/21 16:18:23;;;;;;;3.25;2.72;;;17.10;99.90;;;;;;5934840;23;20400;-88
2023/09/21 16:20:50;;;;;;;2.70;2.47;;;17.80;99.90;;;;;;6020337;23;20007;-88
2023/09/21 16:30:44;;;;;;;3.45;2.33;;;17.00;99.90;;;;;;6056776;23;20006;-86
2023/09/21 16:33:09;;;;;;;2.08;1.63;;;17.00;99.90;;;;;;6211253;23;20009;-85
2023/09/21 16:35:37;;;;;;;3.10;2.08;;;17.40;99.90;;;;;;6214713;23;20394;-86
2023/09/21 16:38:07;;;;;;;3.13;2.78;;;16.90;99.90;;;;;;6215305;23;20012;-89
2023/09/21 16:40:35;;;;;;;7.07;2.65;;;17.60;99.90;;;;;;6214591;23;20052;-84
2023/09/21 16:43:04;;;;;;;2.75;2.55;;;16.30;99.90;;;;;;6213232;23;20075;-84
2023/09/21 16:45:34;;;;;;;3.53;2.90;;;18.10;99.90;;;;;;6214508;23;20005;-84
2023/09/21 16:48:04;;;;;;;3.10;2.80;;;17.00;99.90;;;;;;6213801;23;20009;-87
2023/09/21 16:50:35;;;;;;;2.90;2.70;;;17.10;99.90;;;;;;6214483;23;20008;-86
2023/09/21 16:53:07;;;;;;;3.67;3.00;;;17.00;99.90;;;;;;6213464;23;20028;-85
2023/09/21 16:55:34;;;;;;;2.70;2.50;;;17.80;99.90;;;;;;6213372;23;20001;-85
2023/09/21 16:58:17;;;;;;;5.55;3.45;;;17.00;99.90;;;;;;6160234;23;20028;-87
2023/09/21 17:00:43;;;;;;;3.45;2.97;;;17.00;99.90;;;;;;6214221;23;20011;-87
2023/09/21 17:03:29;;;;;;;3.08;2.75;;;17.30;99.90;;;;;;6214210;23;20337;-87
2023/09/21 17:05:55;;;;;;;3.20;2.90;;;17.00;99.90;;;;;;6214728;23;20029;-88
2023/09/21 17:08:47;;;;;;;3.13;2.92;;;17.00;99.90;;;;;;6214838;23;20000;-87
2023/09/21 17:11:13;;;;;;;3.17;2.88;;;17.10;99.90;;;;;;6063418;23;20011;-87
2023/09/21 17:14:03;;;;;;;3.75;3.17;;;17.80;99.90;;;;;;6065189;23;20003;-88
2023/09/21 17:16:52;;;;;;;3.67;3.17;;;16.40;99.90;;;;;;6078238;23;20003;-87
2023/09/21 17:19:18;;;;;;;3.80;3.42;;;17.10;99.90;;;;;;6109388;23;20024;-86
2023/09/21 17:22:03;;;;;;;5.60;3.40;;;17.10;99.90;;;;;;6247237;23;20299;-87
2023/09/21 17:24:28;;;;;;;4.28;3.85;;;17.00;99.90;;;;;;6257422;23;20000;-87
2023/09/21 17:26:54;;;;;;;4.32;3.85;;;17.10;99.90;;;;;;6246064;23;20008;-87
2023/09/21 17:29:41;;;;;;;3.97;3.58;;;17.10;99.90;;;;;;6243329;23;20353;-89
2023/09/21 17:34:52;;;;;;;3.80;3.45;;;17.00;99.90;;;;;;6241894;23;20062;-87